Weather observations for the past three days for
Flemingsburg Fleming-Mason Airport
Metric (Imperial)
Date Time (edt) Wind (kph) Vis. (km) Weather Sky Cond. Temperature (ºC) Relative Humidity Wind Chill (°C) Heat Index (°C) Pressure Precipitation (cm)
Air Dwpt 6 hour altimeter (cm) sea level (mb) 1 hr 3 hr 6 hr
Max. Min.
16 08:55 E 7 16.09 Fair CLR 20 13.2 65% 76.45 0.0
16 08:35 SE 6 16.09 Fair CLR 18.4 13.4 73% 76.45 0.0
16 08:15 SE 6 16.09 Fair CLR 17.8 13.2 75% 76.45 0.0
16 07:55 SE 6 16.09 Fair CLR 17.5 13.2 17.5 14 76% 76.45 0.0
16 07:35 Calm 16.09 Fair CLR 16.5 12.7 78% 76.45 0.0
16 07:15 Calm 16.09 Fair CLR 16 12.6 80% 76.45 0.0
16 06:55 Calm 16.09 Fair CLR 15.5 12.1 80% 76.45 0.0
16 06:35 E 6 16.09 Fair CLR 14.9 12 83% 76.45 0.0
16 06:15 Calm 16.09 Fair CLR 14.4 11.6 83% 76.45 0.0
16 05:55 E 7 16.09 Fair CLR 14.5 12 85% 76.43 0.0
16 05:35 E 7 16.09 Fair CLR 14.2 11.8 86% 76.43 0.0
16 05:15 NE 7 16.09 Fair CLR 14.5 12 85% 76.43 0.0
16 04:55 E 6 16.09 Fair CLR 14.2 11.5 84% 76.4 0.0
16 04:35 NE 7 16.09 Fair CLR 14.5 11.6 83% 76.4 0.0
16 04:15 NE 7 16.09 Fair CLR 15 11.5 80% 76.4 0.0
16 03:55 NE 6 16.09 Fair CLR 15.5 11 75% 76.4 0.0
16 03:35 NE 6 16.09 Fair CLR 16 10.9 72% 76.4 0.0
16 03:15 Calm 16.09 Fair CLR 15.4 11 75% 76.4 0.0
16 02:55 E 6 16.09 Fair CLR 16 10.6 71% 76.4 0.0
16 02:35 SE 7 16.09 Fair CLR 16.1 10.7 71% 76.4 0.0
16 02:15 Calm 16.09 Fair CLR 16.1 10.7 71% 76.4 0.0
16 01:55 SE 6 16.09 Fair CLR 16.1 11 25.3 16 72% 76.43 0.0
16 01:35 SE 9 16.09 Fair CLR 16 10.9 72% 76.43 0.0
16 01:15 SE 7 16.09 Fair CLR 16.7 11 69% 76.45 0.0
16 00:55 SE 7 16.09 Fair CLR 17.5 10.8 65% 76.45 0.0
16 00:35 SE 7 16.09 Fair CLR 16.4 11.1 71% 76.45 0.0
16 00:15 SE 9 16.09 Fair CLR 17.7 10.8 64% 76.48 0.0
15 23:55 SE 7 16.09 Fair CLR 18 10.8 63% 76.5 0.0
15 23:35 SE 7 16.09 Fair CLR 18.7 10.7 60% 76.48 0.0
15 23:15 SE 7 16.09 Fair CLR 18.5 10.8 61% 76.45 0.0
15 22:55 SE 7 16.09 Fair CLR 18.9 10.8 60% 76.45 0.0
15 22:35 E 7 16.09 Fair CLR 19.8 10.5 55% 76.48 0.0
15 22:15 SE 7 16.09 Fair CLR 20.2 10.1 52% 76.48 0.0
15 21:55 E 7 16.09 Fair CLR 20.6 10.2 51% 76.45 0.0
15 21:35 E 7 16.09 Fair CLR 21.6 10 48% 76.45 0.0
15 21:15 E 7 16.09 Fair CLR 21.8 10.4 48% 76.45 0.0
15 20:55 E 9 16.09 Fair CLR 22.5 10.6 47% 76.45 0.0
15 20:35 E 9 16.09 Fair CLR 23.7 10.5 43% 76.48 0.0
15 20:15 E 7 16.09 Fair CLR 24.5 10.1 40% 25 76.5 0.0
15 19:55 E 7 16.09 Fair CLR 25.5 8.9 28.7 25.5 35% 26 76.48 0.0
15 19:35 E 11 16.09 Fair CLR 26.1 8.7 33% 26 76.48 0.0
15 19:15 E 11 16.09 Fair CLR 26.5 7.6 30% 26 76.48 0.0
15 18:55 SE 11 16.09 Fair CLR 26.9 7.5 29% 26 76.48 0.0
15 18:35 E 13 16.09 Fair CLR 27.5 6.6 27% 27 76.5 0.0
15 18:15 E 15 16.09 Fair CLR 28 5.4 24% 27 76.48 0.0
15 17:55 E 13 16.09 Fair CLR 27.9 5.1 23% 27 76.48 0.0
15 17:35 E 13 16.09 Fair CLR 28.2 5.2 23% 27 76.48 0.0
15 17:15 E 19 16.09 Fair CLR 28.5 4.9 22% 27 76.5 0.0
15 16:55 E 17 16.09 Fair CLR 28.5 4 21% 27 76.5 0.0
15 16:35 E 15 16.09 Fair CLR 28.1 4.2 22% 27 76.5 0.0
15 16:15 E 7 16.09 Fair CLR 27.9 3.5 21% 27 76.5 0.0
15 15:55 SE 13 16.09 Fair CLR 28.1 2 19% 27 76.53 0.0
15 15:35 E 15 16.09 Fair CLR 27.7 5.5 24% 27 76.53 0.0
15 15:15 SE 20 G 26 16.09 Fair CLR 27.4 4.3 23% 26 76.53 0.0
15 14:55 E 17 16.09 Fair CLR 27.7 4.1 22% 27 76.53 0.0
15 14:35 SE 11 16.09 Fair CLR 26.8 5.4 25% 26 76.56 0.0
15 14:15 E 15 16.09 Fair CLR 26.6 6.1 27% 26 76.56 0.0
15 13:35 SE 17 16.09 Fair CLR 26.8 5.8 26% 26 76.58 0.0
15 13:15 E 15 16.09 Fair CLR 25.9 6.3 29% 26 76.61 0.0
15 12:55 SE 17 16.09 Fair CLR 25.6 7.3 31% 26 76.61 0.0
15 12:35 E 13 16.09 Fair CLR 25.6 8.4 34% 26 76.63 0.0
15 12:15 SE 13 G 26 16.09 Fair CLR 24.6 7.4 33% 25 76.61 0.0
15 11:55 E 15 16.09 Fair CLR 24.3 7.5 34% 25 76.63 0.0
15 11:35 E 13 16.09 Fair CLR 25 7.8 33% 25 76.61 0.0
15 11:15 SE 20 G 28 16.09 Fair CLR 24 7.5 35% 25 76.63 0.0
15 10:55 E 19 G 26 16.09 Fair CLR 23 7.6 37% 76.63 0.0
15 10:35 E 19 16.09 Fair CLR 22.5 7.2 37% 76.63 0.0
15 10:15 E 17 16.09 Fair CLR 22.2 7.2 38% 76.63 0.0
15 09:55 E 19 G 26 16.09 Fair CLR 21.8 7.4 40% 76.61 0.0
15 09:35 E 19 G 28 16.09 Fair CLR 21.2 7.2 41% 76.61 0.0
15 09:15 SE 20 16.09 Fair CLR 21.2 8.5 44% 76.61 0.0
15 08:55 E 9 16.09 Fair CLR 20.6 9.1 48% 76.61 0.0
15 08:35 E 13 16.09 Fair CLR 20 9.9 52% 76.58 0.0
15 08:15 E 13 16.09 Fair CLR 19.5 10.5 56% 76.58 0.0
15 07:55 E 13 16.09 Fair CLR 19 11.7 21.2 17 63% 76.58 0.0
15 07:35 E 9 16.09 Fair CLR 18.5 12.3 67% 76.58 0.0
15 07:15 E 9 16.09 Fair CLR 17.7 12.5 72% 76.53 0.0
15 06:55 E 7 16.09 Fair CLR 17.5 12.3 72% 76.5 0.0
15 06:35 E 11 16.09 Fair CLR 17.1 12.3 74% 76.48 0.0
15 06:15 E 11 16.09 Fair CLR 17.1 12.5 75% 76.43 0.0
15 05:55 E 13 16.09 Partly Cloudy SCT085 17.5 12.6 73% 76.43 0.0
15 05:35 E 11 16.09 Fair CLR 18.1 12.7 71% 76.43 0.0
15 05:15 E 15 16.09 Partly Cloudy SCT070 18.3 13.1 72% 76.4 0.0
15 04:55 E 17 16.09 Partly Cloudy SCT070 18.6 13.5 72% 76.38 0.0
15 04:35 E 9 16.09 Partly Cloudy SCT070 18.8 13.8 73% 76.38 0.0
15 04:15 E 15 16.09 Fair CLR 19.2 13.8 71% 76.35 0.0
15 03:55 E 15 16.09 Fair CLR 19.5 14 71% 76.35 0.0
15 03:35 E 20 16.09 Fair CLR 20.1 14.2 69% 76.33 0.0
15 03:15 E 15 16.09 Fair CLR 20 14.5 71% 76.3 0.0
15 02:55 E 13 16.09 Fair CLR 20.2 14.6 70% 76.3 0.0
15 02:35 E 15 16.09 Fair CLR 20.7 14.9 70% 76.3 0.0
15 02:15 E 20 16.09 Fair CLR 21.2 15.2 69% 76.3 0.0
15 01:55 E 17 16.09 Fair CLR 21.2 15.9 28.2 21.2 72% 76.28 0.0
15 01:35 E 17 16.09 Fair CLR 21.5 16.5 73% 76.28 0.0
15 01:15 E 15 16.09 Fair CLR 21.8 16.5 72% 76.25 0.0
15 00:55 E 13 16.09 Fair CLR 22.5 16.7 70% 76.25 0.0
15 00:35 E 15 16.09 Fair CLR 22.6 17.1 71% 76.25 0.0
15 00:15 E 13 16.09 Fair CLR 22.6 17.5 73% 76.25 0.0
14 23:55 E 17 16.09 Fair CLR 22.6 18.3 77% 76.25 0.0
14 23:35 E 11 16.09 Partly Cloudy SCT038 SCT044 SCT050 23.1 18.6 76% 76.25 0.0
14 23:15 E 9 G 28 16.09 Mostly Cloudy SCT038 SCT044 BKN075 23.8 19.3 76% 76.25 0.0
14 22:35 Calm 16.09 Mostly Cloudy BKN060 25.1 19.5 71% 26 76.2 0.0
14 22:15 Calm 16.09 Mostly Cloudy BKN060 BKN070 25.1 19.6 72% 26 76.17 0.0
14 21:55 Calm 16.09 Partly Cloudy SCT060 25.3 19.7 71% 26 76.15 0.0
14 21:35 Calm 16.09 Fair CLR 25.5 19.9 71% 27 76.12 0.0
14 21:15 Calm 16.09 Fair CLR 26 19.8 69% 27 76.12 0.0
14 20:55 Calm 16.09 Fair CLR 26.6 19.7 66% 28 76.1 0.0
14 20:35 NW 6 16.09 Fair CLR 27.3 19.8 64% 29 76.1 0.0
14 20:15 NW 6 16.09 Fair CLR 27.8 19.6 61% 29 76.1 0.0
14 19:55 NW 6 16.09 Fair CLR 28.3 19.6 31.4 27.2 59% 30 76.07 0.0
14 19:35 NW 7 16.09 Partly Cloudy SCT040 SCT047 28.7 19.7 58% 30 76.05 0.0
14 19:15 NW 7 16.09 Mostly Cloudy BKN038 BKN049 29.1 19.5 56% 31 76.05 0.0
14 18:55 NW 9 16.09 Partly Cloudy SCT042 29.1 18.9 54% 30 76.05 0.0
14 18:35 Calm 16.09 Partly Cloudy SCT046 29.1 18.6 53% 30 76.05 0.0
14 18:15 N 6 16.09 Partly Cloudy SCT050 28.7 18.4 54% 30 76.05 0.0
14 17:55 N 6 16.09 Mostly Cloudy BKN050 BKN060 BKN075 27.6 18.6 58% 29 76.05 0.0
14 17:35 N 11 16.09 Mostly Cloudy BKN060 BKN075 28.9 18.3 53% 30 76.05 0.0
14 17:15 NE 11 16.09 Overcast OVC060 27.5 18.1 57% 28 76.05 0.0
14 16:55 N 9 16.09 Overcast BKN060 OVC070 27.5 18.3 57% 28 76.07 0.0
14 16:35 NE 11 16.09 Mostly Cloudy SCT060 BKN070 BKN090 28.3 18.3 55% 29 76.07 0.0
14 16:15 N 9 16.09 Mostly Cloudy BKN060 BKN090 29.9 17.2 46% 30 76.05 0.0
14 15:55 N 6 16.09 Overcast BKN060 OVC070 29.5 16.9 47% 30 76.05 0.0
14 15:35 N 9 16.09 Mostly Cloudy SCT050 BKN070 30 17.2 46% 30 76.07 0.0
14 15:15 SW 9 16.09 Fair CLR 30.7 16.6 43% 31 76.05 0.0
14 14:55 N 6 16.09 Partly Cloudy SCT110 29.9 16.6 45% 30 76.07 0.0
14 14:35 Calm 16.09 Partly Cloudy SCT100 30.4 16.9 44% 31 76.1 0.0
14 14:15 Calm 16.09 Mostly Cloudy BKN100 BKN120 29.9 17 46% 30 76.1 0.0
14 13:55 W 9 16.09 Partly Cloudy SCT100 29.2 16.8 30.8 19.1 47% 30 76.1 0.0
14 13:35 W 15 16.09 Partly Cloudy SCT100 30.8 16.3 42% 31 76.1 0.0
14 13:15 W 9 16.09 Partly Cloudy SCT100 30.4 17.1 45% 31 76.12 0.0
14 12:55 W 13 16.09 Fair CLR 30.2 17.1 45% 31 76.12 0.0
14 12:35 W 17 16.09 Fair CLR 29.6 16.2 44% 30 76.12 0.0
14 12:15 W 9 16.09 Fair CLR 29.4 16.8 47% 30 76.12 0.0
14 11:55 W 13 G 26 16.09 Partly Cloudy SCT085 SCT110 29.5 17.1 47% 30 76.12 0.0
14 11:35 W 13 16.09 Mostly Cloudy SCT085 BKN110 28.5 16.6 49% 29 76.15 0.0
14 11:15 W 11 16.09 Partly Cloudy SCT110 28.2 16 48% 28 76.17 0.0
14 10:55 W 13 16.09 Partly Cloudy SCT120 27.4 15.6 49% 28 76.17 0.0
14 10:35 W 7 16.09 Mostly Cloudy BKN120 26.6 16 52% 27 76.17 0.0
14 10:15 W 6 16.09 Mostly Cloudy SCT095 BKN120 25.5 16.3 57% 26 76.2 0.0
14 09:55 Calm 16.09 Partly Cloudy SCT120 24.5 15.9 59% 26 76.2 0.0
14 09:35 SW 6 16.09 Partly Cloudy SCT110 22.6 16.4 68% 76.2 0.0
14 08:55 SW 7 16.09 Mostly Cloudy SCT100 BKN120 20.1 16.4 79% 76.2 0.0
14 08:35 SW 9 16.09 Partly Cloudy SCT120 19.9 16.6 81% 76.17 0.0
14 08:15 SW 6 16.09 Fair CLR 19.6 16 80% 76.17 0.0
14 07:55 W 6 16.09 Partly Cloudy SCT100 19.2 16 20.2 18.5 82% 76.17 0.0
14 07:35 W 7 16.09 Mostly Cloudy BKN100 19 16.1 83% 76.17 0.0
14 07:15 SW 6 16.09 Partly Cloudy SCT110 19 15.7 81% 76.15 0.0
14 06:55 W 6 16.09 Partly Cloudy SCT110 18.6 16 85% 76.15 0.0
14 06:35 N 9 16.09 Mostly Cloudy BKN110 18.5 15.8 84% 76.15 0.0
14 06:15 Calm 16.09 Overcast SCT090 OVC110 18.9 15.5 81% 76.12 0.0
14 05:55 S 7 16.09 Light Rain SCT060 SCT090 OVC120 19.4 15.1 76% 76.07 0.0
14 05:35 SW 9 16.09 Light Rain BKN120 20 14.5 71% 76.1 0.0
14 05:15 W 9 16.09 Partly Cloudy SCT120 19.5 14.6 73% 76.12 0.0
14 04:35 NW 9 16.09 Fair CLR 19.5 15.5 78% 76.1 0.0
14 04:15 W 6 16.09 Fair CLR 20.1 15.3 74% 76.07 0.0
14 03:55 W 7 16.09 Fair CLR 19.5 15.8 79% 76.1 0.0
14 03:35 NW 9 16.09 Fair CLR 19.1 16.3 84% 76.12 0.0
14 03:15 W 7 16.09 Fair CLR 19.1 16.3 84% 76.12 0.0
14 02:55 W 6 16.09 Fair CLR 19.5 16.1 81% 76.15 0.0
14 02:35 Calm 16.09 Fair CLR 19.3 16.3 83% 76.15 0.0
14 02:15 W 6 16.09 Fair CLR 19.6 16.2 81% 76.17 0.0
14 01:55 SW 7 16.09 Fair CLR 20 16.4 28.2 19.5 80% 76.15 0.0
14 01:35 SW 7 16.09 Fair CLR 20.1 16.4 79% 76.15 0.0
14 01:15 SW 9 16.09 Fair CLR 20 16.3 79% 76.15 0.0
14 00:55 SW 7 16.09 Fair CLR 21 16 73% 76.17 0.0
14 00:35 Calm 16.09 Fair CLR 21.4 15.9 71% 76.17 0.0
14 00:15 W 6 16.09 Fair CLR 22 15.7 68% 76.17 0.0
13 23:55 SW 9 16.09 Fair CLR 22.4 15.6 66% 76.17 0.0
13 22:55 W 6 16.09 Fair CLR 22.9 16 65% 76.17 0.0
13 22:35 Calm 16.09 Fair CLR 24 15.6 59% 25 76.17 0.0
13 22:15 Calm 16.09 Partly Cloudy SCT110 25 15.2 55% 26 76.17 0.0
13 21:55 Calm 16.09 Fair CLR 25.5 15.2 53% 26 76.15 0.0
13 21:35 Calm 16.09 Fair CLR 26.1 15.2 51% 27 76.12 0.0
13 21:15 Calm 16.09 Fair CLR 25.9 15.2 52% 27 76.12 0.0
13 20:55 Calm 16.09 Fair CLR 26.5 15.7 52% 27 76.12 0.0
13 20:35 Calm 16.09 Fair CLR 27.1 15.5 49% 27 76.12 0.0
13 20:15 Calm 16.09 Fair CLR 27.7 15.8 48% 28 76.15 0.0
13 19:55 W 6 16.09 Fair CLR 28.3 15.4 30.9 28.3 45% 28 76.12 0.0
13 19:35 W 6 16.09 Fair CLR 28.9 15.2 43% 29 76.12 0.0
13 19:15 SW 9 16.09 Fair CLR 29.4 14.4 40% 29 76.12 0.0
13 18:55 SW 7 16.09 Fair CLR 29.6 13.6 37% 29 76.12 0.0
13 18:35 W 11 16.09 Fair CLR 30 13.4 36% 29 76.12 0.0
13 18:15 W 13 16.09 Fair CLR 30.2 13 35% 29 76.15 0.0
13 17:55 W 11 16.09 Fair CLR 30.4 13 34% 30 76.17 0.0
13 17:35 W 7 16.09 Fair CLR 30.4 13.6 36% 30 76.17 0.0
13 17:15 W 11 16.09 Fair CLR 30.5 13.3 35% 30 76.17 0.0
13 16:55 W 7 16.09 Fair CLR 30.1 12.1 33% 29 76.2 0.0
13 16:35 W 11 16.09 Fair CLR 30.5 13 34% 30 76.2 0.0
13 16:15 W 13 16.09 Fair CLR 30 13.2 36% 29 76.2 0.0
13 15:55 SW 11 16.09 Fair CLR 30.1 13.3 36% 29 76.2 0.0
13 15:35 W 13 16.09 Fair CLR 30.2 12.7 34% 29 76.2 0.0
13 15:15 S 15 16.09 Fair CLR 29.4 13.2 37% 29 76.23 0.0
13 14:55 W 13 16.09 Fair CLR 29.3 14.1 39% 29 76.23 0.0
13 14:35 SW 9 16.09 Fair CLR 29.2 13.3 38% 29 76.25 0.0
13 14:15 SW 13 16.09 Fair CLR 28.8 13.2 38% 28 76.25 0.0
13 13:55 S 13 16.09 Fair CLR 28.7 13 28.8 18.2 38% 28 76.25 0.0
13 13:35 S 11 16.09 Fair CLR 28.7 14.6 42% 28 76.25 0.0
13 13:15 W 6 16.09 Fair CLR 28.5 12.7 38% 28 76.3 0.0
13 12:55 Calm 16.09 Fair CLR 27.5 12.8 40% 27 76.3 0.0
13 12:35 N 7 16.09 Fair CLR 26.9 12.6 41% 27 76.33 0.0
13 12:15 W 11 16.09 Fair CLR 26.5 12.9 43% 27 76.35 0.0
13 11:35 SW 7 16.09 Fair CLR 26.4 12.6 42% 27 76.35 0.0
13 10:55 W 6 16.09 Fair CLR 26.3 13.6 46% 27 76.33 0.0
13 10:35 W 11 16.09 Fair CLR 26 13.3 45% 26 76.33 0.0
13 10:15 W 6 16.09 Fair CLR 25.3 14.2 50% 26 76.33 0.0
13 09:55 S 6 16.09 Fair CLR 24.2 14.9 56% 25 76.33 0.0
13 09:35 Calm 16.09 Fair CLR 23.5 15.3 60% 76.35 0.0
Date Time (edt) Wind (kph) Vis. (km) Weather Sky Cond. Air Dwpt Max. Min. Relative Humidity Wind Chill (°C) Heat Index (°C) altimeter (cm) sea level (mb) 1 hr 3 hr 6 hr
6 hour
Temperature (ºC) Pressure Precipitation (cm)